Time;durP1;ratioP1;P1;durP2;ratioP2;P2;SDS_P1;SDS_P2;PMS_P1;PMS_P2;Temp;Humidity;BMP_temperature;BMP_pressure;BME280_temperature;BME280_humidity;BME280_pressure;Samples;Min_cycle;Max_cycle;Signal;HPM_P1;HPM_P2
2022/02/12 00:02:01;;;;;;;3.17;2.83;;;-1.50;99.90;;;;;;484482;245;27958;-69
2022/02/12 00:04:02;;;;;;;3.67;2.97;;;-1.50;99.90;;;;;;484450;245;27636;-69
2022/02/12 00:06:03;;;;;;;2.40;2.20;;;-1.50;99.90;;;;;;484470;245;27513;-69
2022/02/12 00:08:04;;;;;;;4.10;2.62;;;-1.50;99.90;;;;;;484531;245;27494;-69
2022/02/12 00:10:06;;;;;;;2.97;2.78;;;-1.50;99.90;;;;;;484397;245;27498;-69
2022/02/12 00:12:07;;;;;;;3.85;3.20;;;-1.50;99.90;;;;;;484150;243;27270;-68
2022/02/12 00:14:08;;;;;;;3.22;2.87;;;-1.50;99.90;;;;;;484554;245;27563;-69
2022/02/12 00:16:09;;;;;;;4.03;2.67;;;-1.60;99.90;;;;;;484508;245;27568;-69
2022/02/12 00:18:11;;;;;;;3.28;2.50;;;-1.70;99.90;;;;;;484553;245;28131;-69
2022/02/12 00:20:12;;;;;;;3.17;2.85;;;-1.70;99.90;;;;;;484408;245;27974;-69
2022/02/12 00:22:13;;;;;;;4.90;2.97;;;-1.80;99.90;;;;;;484423;245;28007;-69
2022/02/12 00:24:14;;;;;;;5.18;3.00;;;-1.80;99.90;;;;;;484517;245;27525;-69
2022/02/12 00:26:16;;;;;;;3.03;2.55;;;-1.70;99.90;;;;;;484503;245;27528;-69
2022/02/12 00:28:17;;;;;;;3.05;2.85;;;-1.80;99.90;;;;;;484533;245;27589;-69
2022/02/12 00:30:18;;;;;;;4.75;2.50;;;-1.80;99.90;;;;;;484495;245;27310;-69
2022/02/12 00:32:19;;;;;;;5.97;2.70;;;-1.70;99.90;;;;;;484468;245;27422;-69
2022/02/12 00:34:21;;;;;;;3.62;2.30;;;-1.80;99.90;;;;;;484476;245;27531;-69
2022/02/12 00:36:22;;;;;;;4.20;2.40;;;-1.80;99.90;;;;;;484556;242;27416;-69
2022/02/12 00:38:23;;;;;;;2.90;2.60;;;-1.70;99.90;;;;;;484494;245;28114;-69
2022/02/12 00:40:25;;;;;;;2.95;2.75;;;-1.70;99.90;;;;;;484499;245;28119;-69
2022/02/12 00:42:26;;;;;;;2.45;2.30;;;-1.80;99.90;;;;;;484448;245;29216;-69
2022/02/12 00:44:27;;;;;;;3.40;2.70;;;-1.80;99.90;;;;;;484528;245;27545;-68
2022/02/12 00:46:28;;;;;;;2.78;2.50;;;-1.70;99.90;;;;;;484448;245;27510;-69
2022/02/12 00:48:30;;;;;;;2.92;2.72;;;-1.80;99.90;;;;;;484494;245;27303;-69
2022/02/12 00:50:31;;;;;;;3.00;2.80;;;-1.80;99.90;;;;;;484551;245;27520;-69
2022/02/12 00:52:32;;;;;;;2.33;2.22;;;-1.80;99.90;;;;;;484508;245;27516;-69
2022/02/12 00:54:33;;;;;;;4.57;2.60;;;-1.80;99.90;;;;;;484464;245;27506;-69
2022/02/12 00:56:34;;;;;;;3.35;2.47;;;-1.80;99.90;;;;;;484535;245;27602;-69
2022/02/12 00:58:36;;;;;;;2.00;1.90;;;-1.80;99.90;;;;;;484418;245;28017;-69
2022/02/12 01:00:37;;;;;;;2.85;2.20;;;-1.80;99.90;;;;;;484473;245;28016;-69
2022/02/12 01:02:38;;;;;;;2.67;2.47;;;-1.80;99.90;;;;;;484515;245;27973;-69
2022/02/12 01:04:39;;;;;;;4.87;2.10;;;-1.80;99.90;;;;;;484475;245;27551;-69
2022/02/12 01:06:41;;;;;;;2.85;2.30;;;-1.90;99.90;;;;;;484569;245;27608;-69
2022/02/12 01:08:42;;;;;;;3.70;2.40;;;-1.90;99.90;;;;;;484575;245;27484;-69
2022/02/12 01:10:43;;;;;;;4.80;2.42;;;-2.00;99.90;;;;;;484431;245;27580;-69
2022/02/12 01:12:44;;;;;;;4.18;2.85;;;-2.10;99.90;;;;;;484545;245;27700;-69
2022/02/12 01:14:46;;;;;;;2.62;2.42;;;-2.00;99.90;;;;;;484502;245;28072;-69
2022/02/12 01:16:47;;;;;;;2.45;2.25;;;-2.10;99.90;;;;;;484516;245;28005;-69
2022/02/12 01:18:48;;;;;;;3.47;2.30;;;-2.00;99.90;;;;;;484514;245;27283;-69
2022/02/12 01:20:49;;;;;;;2.92;2.62;;;-2.00;99.90;;;;;;484437;245;27609;-69
2022/02/12 01:22:51;;;;;;;3.58;2.47;;;-2.00;99.90;;;;;;484485;245;27433;-68
2022/02/12 01:24:53;;;;;;;3.10;2.75;;;;;;;;;;484480;245;27401;-69
2022/02/12 01:26:56;;;;;;;2.70;2.50;;;-2.10;99.90;;;;;;484436;245;28324;-69
2022/02/12 01:28:56;;;;;;;3.40;2.70;;;-2.00;99.90;;;;;;484434;245;27329;-69
2022/02/12 01:30:57;;;;;;;2.53;2.33;;;-2.00;99.90;;;;;;484546;245;27501;-69
2022/02/12 01:32:58;;;;;;;2.80;2.60;;;-2.00;99.90;;;;;;484499;245;27380;-69
2022/02/12 01:34:59;;;;;;;3.00;2.70;;;-2.10;99.90;;;;;;484465;245;27534;-69
2022/02/12 01:37:01;;;;;;;3.75;3.08;;;-2.10;99.90;;;;;;484485;245;27505;-69
2022/02/12 01:39:02;;;;;;;3.00;2.70;;;-2.20;99.90;;;;;;484507;245;27201;-69
2022/02/12 01:41:03;;;;;;;3.90;2.65;;;-2.10;99.90;;;;;;484499;245;27444;-69
2022/02/12 01:43:07;;;;;;;4.82;3.35;;;-2.10;99.90;;;;;;484492;245;27728;-69
2022/02/12 01:45:06;;;;;;;3.45;2.47;;;-2.10;99.90;;;;;;484386;245;28095;-69
2022/02/12 01:47:07;;;;;;;3.28;2.40;;;-2.10;99.90;;;;;;484470;245;27785;-69
2022/02/12 01:49:08;;;;;;;2.65;2.45;;;-2.10;99.90;;;;;;484568;245;27495;-69
2022/02/12 01:51:09;;;;;;;2.70;2.50;;;-2.20;99.90;;;;;;484543;245;27391;-69
2022/02/12 01:53:11;;;;;;;2.90;2.60;;;-2.20;99.90;;;;;;484499;245;27450;-69
2022/02/12 01:55:12;;;;;;;2.30;2.20;;;-2.20;99.90;;;;;;484541;245;27394;-69
2022/02/12 01:57:13;;;;;;;2.85;2.65;;;-2.20;99.90;;;;;;484528;245;27539;-69
2022/02/12 01:59:14;;;;;;;2.12;2.03;;;-2.30;99.90;;;;;;484510;245;27249;-69
2022/02/12 02:01:17;;;;;;;4.37;2.80;;;-2.40;99.90;;;;;;484465;245;27534;-69
2022/02/12 02:03:17;;;;;;;3.95;2.70;;;-2.40;99.90;;;;;;484463;245;27820;-69
2022/02/12 02:05:19;;;;;;;2.72;2.53;;;-2.40;99.90;;;;;;484512;245;27842;-69
2022/02/12 02:07:20;;;;;;;2.65;2.35;;;-2.40;99.90;;;;;;484523;245;27997;-69
2022/02/12 02:09:21;;;;;;;5.35;2.85;;;-2.40;99.90;;;;;;484523;245;27485;-69
2022/02/12 02:11:22;;;;;;;3.45;2.30;;;-2.40;99.90;;;;;;484534;245;27451;-69
2022/02/12 02:13:23;;;;;;;2.70;2.50;;;-2.30;99.90;;;;;;484467;245;27593;-69
2022/02/12 02:15:25;;;;;;;3.15;2.60;;;-2.40;99.90;;;;;;484514;245;27543;-69
2022/02/12 02:17:26;;;;;;;3.08;2.55;;;-2.30;99.90;;;;;;484544;245;27537;-69
2022/02/12 02:19:27;;;;;;;3.10;2.90;;;-2.30;99.90;;;;;;484520;245;27065;-69
2022/02/12 02:21:28;;;;;;;3.00;2.70;;;-2.40;99.90;;;;;;484533;245;27655;-69
2022/02/12 02:23:30;;;;;;;3.60;2.62;;;-2.40;99.90;;;;;;484499;245;27682;-69
2022/02/12 02:25:31;;;;;;;3.25;2.67;;;-2.40;99.90;;;;;;484543;245;27735;-70
2022/02/12 02:27:32;;;;;;;3.25;2.95;;;-2.40;99.90;;;;;;484474;245;29067;-69
2022/02/12 02:29:33;;;;;;;3.67;2.97;;;-2.40;99.90;;;;;;484535;245;27316;-69
2022/02/12 02:31:35;;;;;;;3.33;3.03;;;-2.40;99.90;;;;;;484509;245;27392;-69
2022/02/12 02:33:36;;;;;;;4.87;3.12;;;-2.40;99.90;;;;;;484523;245;27266;-69
2022/02/12 02:35:37;;;;;;;6.90;2.90;;;-2.40;99.90;;;;;;484539;245;27333;-69
2022/02/12 02:37:39;;;;;;;2.50;2.40;;;-2.40;99.90;;;;;;484542;245;27380;-69
2022/02/12 02:39:40;;;;;;;2.60;2.40;;;-2.40;99.90;;;;;;484514;245;27308;-69
2022/02/12 02:41:41;;;;;;;2.72;2.50;;;-2.40;99.90;;;;;;484528;245;27313;-69
2022/02/12 02:43:42;;;;;;;4.20;2.90;;;-2.40;99.90;;;;;;484530;245;28551;-71
2022/02/12 02:45:43;;;;;;;3.10;2.90;;;-2.50;99.90;;;;;;484531;245;27886;-69
2022/02/12 02:47:45;;;;;;;3.00;2.70;;;-2.50;99.90;;;;;;484555;245;27797;-69
2022/02/12 02:49:46;;;;;;;3.10;2.90;;;-2.40;99.90;;;;;;484542;245;27359;-69
2022/02/12 02:56:26;;;;;;;3.08;2.40;;;-2.50;99.90;;;;;;484519;245;27879;-69
2022/02/12 02:58:27;;;;;;;3.15;2.70;;;-2.50;99.90;;;;;;484568;245;28065;-69
2022/02/12 03:00:29;;;;;;;4.30;2.53;;;-2.50;99.90;;;;;;484556;245;29149;-69
2022/02/12 03:02:30;;;;;;;4.65;2.80;;;-2.60;99.90;;;;;;484552;245;27173;-69
2022/02/12 03:04:31;;;;;;;3.00;2.70;;;-2.50;99.90;;;;;;484537;245;27201;-69
2022/02/12 03:06:32;;;;;;;3.60;2.40;;;-2.50;99.90;;;;;;484511;245;28826;-69
2022/02/12 03:08:34;;;;;;;2.40;2.30;;;-2.50;99.90;;;;;;484573;245;27917;-69
2022/02/12 03:10:35;;;;;;;2.60;2.40;;;-2.50;99.90;;;;;;484540;245;27289;-69
2022/02/12 03:12:36;;;;;;;2.87;2.67;;;-2.60;99.90;;;;;;484518;245;27358;-69
2022/02/12 03:14:38;;;;;;;2.78;2.60;;;-2.50;99.90;;;;;;484508;245;27258;-69
2022/02/12 03:16:39;;;;;;;4.85;3.33;;;-2.50;99.90;;;;;;484541;245;27067;-69
2022/02/12 03:18:40;;;;;;;4.03;2.37;;;-2.50;99.90;;;;;;484565;245;27226;-69
2022/02/12 03:20:41;;;;;;;2.60;2.40;;;-2.60;99.90;;;;;;484534;245;27333;-69
2022/02/12 03:22:43;;;;;;;3.67;2.95;;;-2.50;99.90;;;;;;484527;245;27058;-69
2022/02/12 03:24:44;;;;;;;2.72;2.53;;;-2.50;99.90;;;;;;484506;245;27283;-69
2022/02/12 03:26:45;;;;;;;3.75;2.65;;;-2.60;99.90;;;;;;484535;242;27986;-69
2022/02/12 03:28:46;;;;;;;2.62;2.45;;;-2.60;99.90;;;;;;484608;245;27548;-69
2022/02/12 03:30:48;;;;;;;2.75;2.55;;;-2.60;99.90;;;;;;484574;245;27274;-69
2022/02/12 03:32:49;;;;;;;2.22;2.12;;;-2.60;99.90;;;;;;484562;245;27239;-69
2022/02/12 03:34:50;;;;;;;2.83;2.62;;;-2.60;99.90;;;;;;484537;245;27401;-69
2022/02/12 03:36:52;;;;;;;2.72;2.62;;;;;;;;;;484550;245;27078;-69
2022/02/12 03:38:54;;;;;;;2.30;2.08;;;-2.60;99.90;;;;;;484595;245;27461;-69
2022/02/12 03:41:00;;;;;;;3.05;2.75;;;;;;;;;;484528;245;27242;-69
2022/02/12 03:43:00;;;;;;;2.60;2.50;;;-2.60;99.90;;;;;;484504;245;26633;-68
2022/02/12 03:45:02;;;;;;;2.72;2.53;;;-2.60;99.90;;;;;;484596;242;27172;-69
2022/02/12 03:47:03;;;;;;;3.35;2.42;;;-2.60;99.90;;;;;;484530;245;27358;-69
2022/02/12 03:49:05;;;;;;;3.25;2.33;;;-2.60;99.90;;;;;;484570;245;27799;-69
2022/02/12 03:51:05;;;;;;;2.90;2.70;;;-2.60;99.90;;;;;;484460;245;28490;-69
2022/02/12 03:53:08;;;;;;;2.53;2.33;;;;;;;;;;484588;245;27683;-69
2022/02/12 03:55:09;;;;;;;2.37;2.10;;;-2.70;99.90;;;;;;484534;245;26609;-69
2022/02/12 03:57:10;;;;;;;2.35;2.15;;;-2.70;99.90;;;;;;484536;245;27173;-68
2022/02/12 03:59:12;;;;;;;4.20;3.15;;;-2.80;99.90;;;;;;484549;245;27991;-69
2022/02/12 04:01:14;;;;;;;2.75;2.55;;;;;;;;;;484632;245;27695;-69
2022/02/12 04:03:17;;;;;;;2.65;2.50;;;;;;;;;;484529;245;26606;-69
2022/02/12 04:05:21;;;;;;;2.83;2.62;;;;;;;;;;484567;245;28216;-69
2022/02/12 04:07:20;;;;;;;6.97;2.65;;;-2.90;99.90;;;;;;484220;245;26765;-69
2022/02/12 04:09:23;;;;;;;3.28;2.87;;;;;;;;;;484538;245;27250;-69
2022/02/12 04:11:24;;;;;;;2.60;2.50;;;-2.90;99.90;;;;;;484557;245;27140;-69
2022/02/12 04:13:25;;;;;;;2.97;2.75;;;-2.80;99.90;;;;;;484537;245;27041;-69
2022/02/12 04:15:26;;;;;;;3.80;2.90;;;-2.80;99.90;;;;;;484478;245;27089;-69
2022/02/12 04:17:34;;;;;;;3.00;2.80;;;;;;;;;;484513;245;27054;-69
2022/02/12 04:19:31;;;;;;;5.10;2.70;;;;;;;;;;484138;245;27203;-69
2022/02/12 04:21:34;;;;;;;2.75;2.53;;;;;;;;;;484512;245;26627;-69
2022/02/12 04:23:35;;;;;;;5.45;2.55;;;-2.90;99.90;;;;;;484523;245;27289;-69
2022/02/12 04:25:37;;;;;;;2.45;2.35;;;;;;;;;;484540;245;27176;-69
2022/02/12 04:27:39;;;;;;;3.58;2.40;;;-2.90;99.90;;;;;;484498;245;26681;-69
2022/02/12 04:29:40;;;;;;;5.72;2.62;;;-2.90;99.90;;;;;;484502;245;27491;-69
2022/02/12 04:31:41;;;;;;;4.35;2.70;;;-2.90;99.90;;;;;;484559;245;27685;-69
2022/02/12 04:33:44;;;;;;;2.53;2.33;;;;;;;;;;484510;245;27602;-69
2022/02/12 04:35:45;;;;;;;4.70;3.05;;;-3.00;99.90;;;;;;484536;245;26662;-69
2022/02/12 04:37:46;;;;;;;2.87;2.67;;;-3.00;99.90;;;;;;484489;245;27193;-69
2022/02/12 04:39:47;;;;;;;3.08;2.87;;;-3.00;99.90;;;;;;484546;245;27037;-69
2022/02/12 04:41:50;;;;;;;3.67;3.00;;;;;;;;;;484512;245;28732;-69
2022/02/12 04:43:52;;;;;;;4.65;2.60;;;;;;;;;;484492;245;26640;-69
2022/02/12 04:45:56;;;;;;;2.85;2.65;;;;;;;;;;484567;245;27162;-69
2022/02/12 04:47:57;;;;;;;3.50;2.80;;;;;;;;;;484490;245;26620;-69
2022/02/12 04:50:00;;;;;;;2.70;2.50;;;;;;;;;;484508;245;26510;-69
2022/02/12 04:52:02;;;;;;;5.82;3.17;;;;;;;;;;484552;245;26652;-69
2022/02/12 04:54:04;;;;;;;3.30;2.85;;;;;;;;;;484484;245;26620;-69
2022/02/12 04:56:07;;;;;;;2.90;2.62;;;;;;;;;;484511;245;27282;-69
2022/02/12 04:58:09;;;;;;;2.62;2.42;;;;;;;;;;484488;245;26687;-69
2022/02/12 05:00:12;;;;;;;4.18;3.17;;;;;;;;;;484508;245;28464;-69
2022/02/12 05:02:13;;;;;;;2.80;2.62;;;-3.00;99.90;;;;;;484545;245;26632;-69
2022/02/12 05:04:15;;;;;;;2.72;2.53;;;;;;;;;;484493;245;27552;-69
2022/02/12 05:06:18;;;;;;;5.80;2.85;;;;;;;;;;484537;245;26667;-69
2022/02/12 05:08:20;;;;;;;3.53;3.20;;;;;;;;;;484581;245;26679;-69
2022/02/12 05:10:23;;;;;;;3.12;2.92;;;;;;;;;;484523;245;26951;-69
2022/02/12 05:12:24;;;;;;;3.35;3.08;;;-3.10;99.90;;;;;;484521;245;27299;-70
2022/02/12 05:14:29;;;;;;;2.58;2.37;;;;;;;;;;484546;245;27659;-69
2022/02/12 05:16:29;;;;;;;5.00;2.90;;;;;;;;;;484314;245;27258;-69
2022/02/12 05:18:30;;;;;;;2.67;2.47;;;-3.10;99.90;;;;;;484522;245;26831;-69
2022/02/12 05:20:32;;;;;;;4.20;2.70;;;;;;;;;;484555;245;27181;-69
2022/02/12 05:22:34;;;;;;;5.05;2.90;;;-3.10;99.90;;;;;;484527;245;27107;-69
2022/02/12 05:24:36;;;;;;;2.67;2.47;;;;;;;;;;484469;245;28678;-69
2022/02/12 05:26:37;;;;;;;2.70;2.47;;;-3.20;99.90;;;;;;484530;245;26753;-69
2022/02/12 05:28:40;;;;;;;2.80;2.60;;;;;;;;;;484501;245;27494;-69
2022/02/12 05:30:43;;;;;;;3.42;2.60;;;;;;;;;;484512;245;26595;-68
2022/02/12 05:32:45;;;;;;;5.95;3.08;;;;;;;;;;484566;245;27395;-69
2022/02/12 05:34:46;;;;;;;6.72;3.20;;;-2.80;99.90;;;;;;484492;245;27073;-69
2022/02/12 05:36:48;;;;;;;3.10;2.80;;;;;;;;;;484502;245;27493;-69
2022/02/12 05:38:51;;;;;;;6.40;4.00;;;;;;;;;;484530;245;27283;-70
2022/02/12 05:40:53;;;;;;;3.20;2.90;;;;;;;;;;484528;245;26851;-69
2022/02/12 05:42:56;;;;;;;4.07;3.67;;;;;;;;;;484551;245;26638;-69
2022/02/12 05:44:58;;;;;;;3.85;3.17;;;;;;;;;;484540;245;26887;-69
2022/02/12 05:47:00;;;;;;;2.90;2.70;;;;;;;;;;484542;245;26726;-69
2022/02/12 05:49:03;;;;;;;3.65;3.33;;;;;;;;;;484569;245;28429;-69
2022/02/12 05:51:05;;;;;;;5.68;3.47;;;;;;;;;;484565;245;26877;-69
2022/02/12 05:53:07;;;;;;;8.73;3.75;;;-3.20;99.90;;;;;;484487;245;26639;-69
2022/02/12 05:55:09;;;;;;;3.22;2.72;;;;;;;;;;484520;245;27107;-69
2022/02/12 05:57:10;;;;;;;3.00;2.80;;;-2.90;99.90;;;;;;484530;245;26767;-69
2022/02/12 05:59:13;;;;;;;11.60;4.28;;;-2.60;99.90;;;;;;484531;245;27688;-69
2022/02/12 06:01:13;;;;;;;5.22;3.75;;;-2.30;99.90;;;;;;484403;245;28604;-69
2022/02/12 06:03:14;;;;;;;5.43;4.62;;;-2.30;99.90;;;;;;484468;245;27069;-69
2022/02/12 06:05:15;;;;;;;5.47;3.85;;;-2.20;99.90;;;;;;484531;245;27079;-70
2022/02/12 06:07:16;;;;;;;12.35;4.35;;;-2.20;99.90;;;;;;484487;245;28202;-68
2022/02/12 06:09:19;;;;;;;4.75;3.90;;;;;;;;;;484505;245;27120;-69
2022/02/12 06:11:21;;;;;;;7.82;4.37;;;;;;;;;;484546;245;27436;-69
2022/02/12 06:13:23;;;;;;;9.00;3.58;;;-2.20;99.90;;;;;;484528;245;26647;-69
2022/02/12 06:15:24;;;;;;;5.97;3.92;;;-2.00;99.90;;;;;;484535;245;27141;-69
2022/02/12 06:17:25;;;;;;;10.13;3.83;;;-2.00;99.90;;;;;;484482;245;28166;-69
2022/02/12 06:19:26;;;;;;;6.65;4.05;;;-1.80;99.90;;;;;;484574;245;27615;-69
2022/02/12 06:21:28;;;;;;;8.18;4.43;;;-1.60;99.90;;;;;;484498;245;27630;-69
2022/02/12 06:23:29;;;;;;;7.43;4.57;;;-1.60;99.90;;;;;;484542;245;27076;-69
2022/02/12 06:25:30;;;;;;;8.80;4.65;;;-1.50;99.90;;;;;;484534;245;27462;-69
2022/02/12 06:27:31;;;;;;;14.82;4.97;;;-1.40;99.90;;;;;;484560;245;27429;-69
2022/02/12 06:29:33;;;;;;;12.55;4.47;;;-1.40;99.90;;;;;;484582;245;27445;-69
2022/02/12 06:31:34;;;;;;;11.07;5.32;;;-1.40;99.90;;;;;;484509;245;27510;-70
2022/02/12 06:33:35;;;;;;;7.45;4.12;;;-1.50;99.90;;;;;;484570;245;27207;-69
2022/02/12 06:35:36;;;;;;;14.05;5.62;;;-1.40;99.90;;;;;;484532;245;28716;-69
2022/02/12 06:37:38;;;;;;;11.43;5.10;;;-1.40;99.90;;;;;;484504;245;28973;-69
2022/02/12 06:39:39;;;;;;;8.85;4.12;;;-1.40;99.90;;;;;;484568;245;27396;-69
2022/02/12 06:41:40;;;;;;;10.05;4.40;;;-1.40;99.90;;;;;;484505;245;27434;-69
2022/02/12 06:43:41;;;;;;;5.90;4.12;;;-1.30;99.90;;;;;;484461;245;27643;-69
2022/02/12 06:45:43;;;;;;;12.93;4.90;;;-1.40;99.90;;;;;;484400;245;27571;-73
2022/02/12 06:47:44;;;;;;;8.02;4.30;;;-1.40;99.90;;;;;;484512;245;27506;-71
2022/02/12 06:49:45;;;;;;;8.23;4.10;;;-1.40;99.90;;;;;;484323;245;27521;-73
2022/02/12 06:51:46;;;;;;;9.23;3.55;;;-1.30;99.90;;;;;;484421;242;27550;-73
2022/02/12 06:53:48;;;;;;;8.25;3.60;;;-1.40;99.90;;;;;;484482;245;27988;-73
2022/02/12 06:55:49;;;;;;;7.25;3.90;;;-1.40;99.90;;;;;;484580;245;28958;-73
2022/02/12 06:57:50;;;;;;;6.90;3.80;;;-1.30;99.90;;;;;;484470;245;27878;-73
2022/02/12 06:59:51;;;;;;;9.43;4.28;;;-1.30;99.90;;;;;;484543;245;27395;-74
2022/02/12 07:01:53;;;;;;;5.75;3.75;;;-1.20;99.90;;;;;;484539;245;27425;-73
2022/02/12 07:03:54;;;;;;;5.87;3.47;;;-1.20;99.90;;;;;;484450;245;27481;-74
2022/02/12 07:05:55;;;;;;;5.45;3.95;;;-1.20;99.90;;;;;;484520;245;27545;-74
2022/02/12 07:07:56;;;;;;;6.15;3.28;;;-1.20;99.90;;;;;;484530;245;27410;-73
2022/02/12 07:09:58;;;;;;;11.10;4.20;;;-1.20;99.90;;;;;;484515;245;27545;-73
2022/02/12 07:11:59;;;;;;;6.95;3.70;;;-1.30;99.90;;;;;;484520;245;27585;-73
2022/02/12 07:14:01;;;;;;;8.77;3.80;;;-1.30;99.90;;;;;;484506;245;27992;-73
2022/02/12 07:16:02;;;;;;;12.35;6.78;;;-1.20;99.90;;;;;;484467;245;28055;-74
2022/02/12 07:18:03;;;;;;;7.70;5.45;;;-1.20;99.90;;;;;;484556;245;27568;-73
2022/02/12 07:20:04;;;;;;;8.77;5.35;;;-1.20;99.90;;;;;;484554;245;27605;-73
2022/02/12 07:22:06;;;;;;;9.93;6.22;;;-1.20;99.90;;;;;;484541;245;28865;-74
2022/02/12 07:24:07;;;;;;;10.15;5.90;;;-1.20;99.90;;;;;;484569;245;27984;-73
2022/02/12 07:26:08;;;;;;;10.05;5.87;;;-1.10;99.90;;;;;;484522;242;27550;-73
2022/02/12 07:28:09;;;;;;;9.93;5.45;;;-1.10;99.90;;;;;;484521;245;27526;-73
2022/02/12 07:30:11;;;;;;;6.93;5.43;;;-1.10;99.90;;;;;;484545;245;27585;-73
2022/02/12 07:32:12;;;;;;;9.75;5.47;;;-1.10;99.90;;;;;;484553;245;27535;-73
2022/02/12 07:34:15;;;;;;;13.25;5.12;;;-1.00;99.90;;;;;;484555;245;27405;-73
2022/02/12 07:36:14;;;;;;;8.20;5.47;;;-0.90;99.90;;;;;;484351;245;27532;-73
2022/02/12 07:38:16;;;;;;;11.02;5.22;;;-0.80;99.90;;;;;;484592;245;27645;-73
2022/02/12 07:40:17;;;;;;;7.82;4.80;;;-0.80;99.90;;;;;;484517;245;28000;-73
2022/02/12 07:42:18;;;;;;;9.85;5.65;;;-0.80;99.90;;;;;;484492;245;28000;-73
2022/02/12 07:44:19;;;;;;;8.63;5.50;;;-0.80;99.90;;;;;;484564;245;27607;-73
2022/02/12 07:46:21;;;;;;;8.65;4.70;;;-0.70;99.90;;;;;;484533;245;27530;-74
2022/02/12 07:48:23;;;;;;;7.10;5.10;;;-0.70;99.90;;;;;;484532;245;27540;-74
2022/02/12 07:50:23;;;;;;;8.20;5.45;;;-0.70;99.90;;;;;;484464;245;27490;-74
2022/02/12 07:52:24;;;;;;;7.45;5.35;;;-0.60;99.90;;;;;;484431;245;27888;-73
2022/02/12 07:54:26;;;;;;;7.20;5.15;;;-0.60;99.90;;;;;;484551;245;27576;-73
2022/02/12 07:56:28;;;;;;;6.85;5.18;;;-0.60;99.90;;;;;;484546;245;27493;-74
2022/02/12 07:58:28;;;;;;;7.30;5.05;;;-0.50;99.90;;;;;;484478;245;27541;-74
2022/02/12 08:00:30;;;;;;;10.32;5.70;;;-0.50;99.90;;;;;;484573;245;27946;-74
2022/02/12 08:02:31;;;;;;;9.10;5.40;;;-0.50;99.90;;;;;;484517;245;29233;-73
2022/02/12 08:04:32;;;;;;;8.13;5.75;;;-0.60;99.90;;;;;;484471;245;27552;-74
2022/02/12 08:08:53;;;;;;;9.50;6.37;;;-0.40;99.90;;;;;;484497;245;28056;-73
2022/02/12 08:13:13;;;;;;;14.18;6.85;;;-0.40;99.90;;;;;;484541;245;27492;-73
2022/02/12 08:15:14;;;;;;;8.07;5.75;;;-0.30;99.90;;;;;;484479;242;28113;-74
2022/02/12 08:17:16;;;;;;;8.52;6.30;;;-0.30;99.90;;;;;;484492;245;28077;-73
2022/02/12 08:19:17;;;;;;;10.45;7.10;;;-0.20;99.90;;;;;;484465;245;27675;-74
2022/02/12 08:21:18;;;;;;;8.43;5.87;;;-0.20;99.90;;;;;;484520;245;27520;-73
2022/02/12 08:23:19;;;;;;;10.35;5.30;;;-0.10;99.90;;;;;;484532;245;27485;-73
2022/02/12 08:25:21;;;;;;;18.35;7.78;;;0.00;99.90;;;;;;484459;245;27612;-73
2022/02/12 08:27:26;;;;;;;9.75;6.72;;;0.00;99.90;;;;;;484523;245;27498;-73
2022/02/12 08:29:28;;;;;;;11.90;7.78;;;0.00;99.90;;;;;;484125;245;27523;-73
2022/02/12 08:31:24;;;;;;;11.15;6.82;;;0.10;99.90;;;;;;484161;242;27658;-74
2022/02/12 08:33:26;;;;;;;10.32;6.60;;;0.20;99.90;;;;;;484518;245;28016;-73
2022/02/12 08:35:27;;;;;;;9.18;6.43;;;0.30;99.90;;;;;;484478;245;28052;-73
2022/02/12 08:37:28;;;;;;;7.07;5.57;;;0.30;99.90;;;;;;484551;245;27578;-73
2022/02/12 08:39:29;;;;;;;12.55;6.37;;;0.40;99.90;;;;;;484547;245;27523;-73
2022/02/12 08:41:31;;;;;;;10.02;5.60;;;0.40;99.90;;;;;;484420;245;27538;-74
2022/02/12 08:43:32;;;;;;;9.57;4.97;;;0.50;99.90;;;;;;484510;245;27493;-71
2022/02/12 08:45:33;;;;;;;6.00;5.28;;;0.50;99.90;;;;;;484499;245;27539;-73
2022/02/12 08:47:34;;;;;;;6.57;4.72;;;0.50;99.90;;;;;;484477;245;27497;-73
2022/02/12 08:49:36;;;;;;;9.32;4.75;;;0.60;99.90;;;;;;484502;245;27586;-73
2022/02/12 08:51:40;;;;;;;6.05;4.65;;;0.60;99.90;;;;;;484452;245;27542;-73
2022/02/12 08:53:38;;;;;;;7.07;4.80;;;0.60;99.90;;;;;;484312;245;27570;-73
2022/02/12 08:55:39;;;;;;;6.78;4.95;;;0.70;99.90;;;;;;484507;245;27623;-73
2022/02/12 08:57:41;;;;;;;7.62;4.40;;;0.80;99.90;;;;;;484451;245;28938;-73
2022/02/12 08:59:42;;;;;;;4.95;4.45;;;0.80;99.90;;;;;;484529;245;27947;-73
2022/02/12 09:01:43;;;;;;;8.38;5.10;;;0.90;99.90;;;;;;484507;245;28020;-73
2022/02/12 09:03:45;;;;;;;9.45;5.07;;;0.90;99.90;;;;;;484480;245;28019;-73
2022/02/12 09:05:46;;;;;;;10.13;5.68;;;1.00;99.90;;;;;;484409;245;27580;-74
2022/02/12 09:07:47;;;;;;;7.55;4.65;;;1.10;99.90;;;;;;484476;245;27538;-73
2022/02/12 09:09:48;;;;;;;8.18;4.82;;;1.10;99.90;;;;;;484536;245;27470;-73
2022/02/12 09:11:49;;;;;;;7.32;4.87;;;1.20;99.90;;;;;;484533;245;27563;-74
2022/02/12 09:13:52;;;;;;;9.00;4.57;;;1.30;99.90;;;;;;484471;245;27592;-73
2022/02/12 09:15:53;;;;;;;6.85;4.45;;;1.20;99.90;;;;;;484468;245;27553;-74
2022/02/12 09:17:53;;;;;;;4.50;3.55;;;1.30;99.90;;;;;;484379;245;27849;-75
2022/02/12 09:19:58;;;;;;;6.57;4.43;;;1.20;99.90;;;;;;484492;245;27630;-73
2022/02/12 09:21:56;;;;;;;10.40;4.60;;;1.30;99.90;;;;;;484238;245;27546;-74
2022/02/12 09:23:57;;;;;;;6.03;4.75;;;1.40;99.90;;;;;;484478;245;28041;-74
2022/02/12 09:25:58;;;;;;;10.70;5.65;;;1.50;99.90;;;;;;479783;245;27957;-74
2022/02/12 09:28:00;;;;;;;13.05;5.70;;;1.50;99.90;;;;;;488494;243;27883;-74
2022/02/12 09:30:01;;;;;;;10.32;4.97;;;1.50;99.90;;;;;;488384;243;28129;-73
2022/02/12 09:32:02;;;;;;;9.02;4.62;;;1.60;99.90;;;;;;488480;242;27440;-74
2022/02/12 09:34:03;;;;;;;11.45;5.22;;;1.60;99.90;;;;;;488509;242;27458;-73
2022/02/12 09:36:04;;;;;;;8.95;5.03;;;1.60;99.90;;;;;;488462;243;27511;-74
2022/02/12 09:38:06;;;;;;;9.45;4.72;;;1.70;99.90;;;;;;488545;242;27437;-74
2022/02/12 09:40:09;;;;;;;12.32;5.10;;;1.70;99.90;;;;;;488269;243;27376;-73
2022/02/12 09:42:08;;;;;;;11.32;5.78;;;1.80;99.90;;;;;;488302;243;27516;-73
2022/02/12 09:44:10;;;;;;;8.68;4.22;;;1.80;99.90;;;;;;488514;242;27531;-74
2022/02/12 09:46:11;;;;;;;9.15;4.50;;;1.70;99.90;;;;;;488269;242;27430;-73
2022/02/12 09:48:12;;;;;;;12.25;4.62;;;1.80;99.90;;;;;;488511;242;27531;-73
2022/02/12 09:50:13;;;;;;;6.65;4.43;;;1.80;99.90;;;;;;488466;243;27472;-74
2022/02/12 09:52:15;;;;;;;7.95;4.62;;;1.80;99.90;;;;;;488411;242;27975;-74
2022/02/12 09:54:16;;;;;;;8.15;4.68;;;1.90;99.90;;;;;;488394;242;27995;-74
2022/02/12 09:56:18;;;;;;;12.00;4.87;;;2.00;99.90;;;;;;488499;242;27843;-73
2022/02/12 09:58:18;;;;;;;16.58;4.85;;;2.00;99.90;;;;;;488351;242;27432;-74
2022/02/12 10:00:20;;;;;;;9.98;3.90;;;2.10;99.90;;;;;;488437;242;27390;-74
2022/02/12 10:02:21;;;;;;;7.53;4.37;;;2.10;99.90;;;;;;488412;242;27413;-74
2022/02/12 10:04:22;;;;;;;7.85;4.05;;;2.10;99.90;;;;;;488396;242;27410;-75
2022/02/12 10:06:23;;;;;;;11.35;4.50;;;2.10;99.90;;;;;;488424;242;27372;-74
2022/02/12 10:08:25;;;;;;;8.70;4.32;;;2.20;99.90;;;;;;488476;242;27424;-74
2022/02/12 10:10:27;;;;;;;6.70;4.50;;;2.20;99.90;;;;;;488435;243;27500;-74
2022/02/12 10:12:27;;;;;;;7.03;4.10;;;2.30;99.90;;;;;;488408;242;27481;-74
2022/02/12 10:14:30;;;;;;;6.22;3.92;;;2.30;99.90;;;;;;488467;242;27416;-74
2022/02/12 10:16:30;;;;;;;7.25;4.47;;;2.40;99.90;;;;;;488357;243;27815;-74
2022/02/12 10:18:31;;;;;;;6.07;3.65;;;2.50;99.90;;;;;;488414;242;27869;-74
2022/02/12 10:20:35;;;;;;;12.77;4.10;;;2.50;99.90;;;;;;488391;242;27897;-74
2022/02/12 10:22:38;;;;;;;6.50;4.00;;;2.60;99.90;;;;;;488443;242;27459;-74
2022/02/12 10:24:38;;;;;;;4.70;3.42;;;2.50;99.90;;;;;;488443;243;27369;-74
2022/02/12 10:26:40;;;;;;;10.18;3.60;;;2.50;99.90;;;;;;488403;242;27413;-74
2022/02/12 10:28:42;;;;;;;7.78;4.40;;;2.60;99.90;;;;;;488434;242;27389;-73
2022/02/12 10:30:41;;;;;;;5.53;3.55;;;2.70;99.90;;;;;;488270;243;27524;-74
2022/02/12 10:32:43;;;;;;;15.13;4.15;;;2.70;99.90;;;;;;488410;242;27527;-74
2022/02/12 10:34:45;;;;;;;11.45;3.70;;;;;;;;;;488507;242;27837;-73
2022/02/12 10:36:46;;;;;;;8.20;3.65;;;2.90;99.90;;;;;;488509;243;26795;-74
2022/02/12 10:38:47;;;;;;;8.93;3.25;;;2.80;99.90;;;;;;488434;242;27898;-74
2022/02/12 10:40:48;;;;;;;9.27;4.10;;;2.90;99.90;;;;;;488475;242;28006;-73
2022/02/12 10:42:50;;;;;;;10.13;3.65;;;3.00;99.90;;;;;;488484;242;27374;-74
2022/02/12 10:44:51;;;;;;;6.15;3.25;;;3.00;99.90;;;;;;488382;242;27539;-75
2022/02/12 10:46:52;;;;;;;8.77;3.67;;;3.00;99.90;;;;;;488464;242;27456;-74
2022/02/12 10:48:53;;;;;;;8.10;3.40;;;3.10;99.90;;;;;;488406;242;27406;-74
2022/02/12 10:50:55;;;;;;;4.68;3.10;;;3.20;99.90;;;;;;488445;242;27585;-73
2022/02/12 10:52:56;;;;;;;8.18;3.95;;;3.20;99.90;;;;;;488467;242;27421;-74
2022/02/12 10:54:57;;;;;;;6.90;3.35;;;3.20;99.90;;;;;;488435;242;27429;-74